sensor_id;sensor_type;location;lat;lon;timestamp;P1;durP1;ratioP1;P2;durP2;ratioP2
6997;SDS011;3539;47.982;12.238;2023-07-08T00:00:32;7.37;;;5.10;;
6997;SDS011;3539;47.982;12.238;2023-07-08T00:03:04;8.37;;;5.13;;
6997;SDS011;3539;47.982;12.238;2023-07-08T00:05:31;7.63;;;5.07;;
6997;SDS011;3539;47.982;12.238;2023-07-08T00:07:58;6.13;;;5.40;;
6997;SDS011;3539;47.982;12.238;2023-07-08T00:10:25;13.17;;;5.47;;
6997;SDS011;3539;47.982;12.238;2023-07-08T00:12:54;8.20;;;5.53;;
6997;SDS011;3539;47.982;12.238;2023-07-08T00:15:24;5.90;;;4.80;;
6997;SDS011;3539;47.982;12.238;2023-07-08T00:18:15;6.40;;;5.10;;
6997;SDS011;3539;47.982;12.238;2023-07-08T00:20:47;7.77;;;5.20;;
6997;SDS011;3539;47.982;12.238;2023-07-08T00:23:15;6.20;;;4.60;;
6997;SDS011;3539;47.982;12.238;2023-07-08T00:25:57;7.03;;;5.03;;
6997;SDS011;3539;47.982;12.238;2023-07-08T00:28:27;6.03;;;4.67;;
6997;SDS011;3539;47.982;12.238;2023-07-08T00:31:01;6.83;;;5.00;;
6997;SDS011;3539;47.982;12.238;2023-07-08T00:33:37;8.13;;;5.33;;
6997;SDS011;3539;47.982;12.238;2023-07-08T00:36:12;5.30;;;4.70;;
6997;SDS011;3539;47.982;12.238;2023-07-08T00:38:57;8.20;;;4.97;;
6997;SDS011;3539;47.982;12.238;2023-07-08T00:41:27;7.03;;;4.80;;
6997;SDS011;3539;47.982;12.238;2023-07-08T00:43:56;7.73;;;5.47;;
6997;SDS011;3539;47.982;12.238;2023-07-08T00:46:37;7.53;;;5.13;;
6997;SDS011;3539;47.982;12.238;2023-07-08T00:49:24;6.10;;;4.83;;
6997;SDS011;3539;47.982;12.238;2023-07-08T00:54:57;5.70;;;4.30;;
6997;SDS011;3539;47.982;12.238;2023-07-08T00:57:29;5.57;;;4.77;;
6997;SDS011;3539;47.982;12.238;2023-07-08T01:00:02;7.13;;;5.00;;
6997;SDS011;3539;47.982;12.238;2023-07-08T01:02:32;6.90;;;4.40;;
6997;SDS011;3539;47.982;12.238;2023-07-08T01:05:05;5.97;;;4.50;;
6997;SDS011;3539;47.982;12.238;2023-07-08T01:07:35;4.87;;;4.03;;
6997;SDS011;3539;47.982;12.238;2023-07-08T01:10:04;6.60;;;4.53;;
6997;SDS011;3539;47.982;12.238;2023-07-08T01:12:39;6.67;;;4.70;;
6997;SDS011;3539;47.982;12.238;2023-07-08T01:15:08;8.30;;;5.27;;
6997;SDS011;3539;47.982;12.238;2023-07-08T01:17:36;6.73;;;4.90;;
6997;SDS011;3539;47.982;12.238;2023-07-08T01:20:05;6.87;;;5.00;;
6997;SDS011;3539;47.982;12.238;2023-07-08T01:22:39;7.17;;;5.33;;
6997;SDS011;3539;47.982;12.238;2023-07-08T01:25:06;9.53;;;6.00;;
6997;SDS011;3539;47.982;12.238;2023-07-08T01:27:35;8.63;;;6.20;;
6997;SDS011;3539;47.982;12.238;2023-07-08T01:30:06;7.40;;;5.50;;
6997;SDS011;3539;47.982;12.238;2023-07-08T01:32:33;7.13;;;5.33;;
6997;SDS011;3539;47.982;12.238;2023-07-08T01:35:01;6.50;;;5.27;;
6997;SDS011;3539;47.982;12.238;2023-07-08T01:37:30;6.73;;;4.97;;
6997;SDS011;3539;47.982;12.238;2023-07-08T01:40:15;7.30;;;5.40;;
6997;SDS011;3539;47.982;12.238;2023-07-08T01:42:43;7.20;;;5.10;;
6997;SDS011;3539;47.982;12.238;2023-07-08T01:45:10;6.63;;;5.30;;
6997;SDS011;3539;47.982;12.238;2023-07-08T01:47:39;5.83;;;4.70;;
6997;SDS011;3539;47.982;12.238;2023-07-08T01:50:07;7.83;;;5.27;;
6997;SDS011;3539;47.982;12.238;2023-07-08T01:52:34;7.43;;;5.27;;
6997;SDS011;3539;47.982;12.238;2023-07-08T01:55:02;6.40;;;4.67;;
6997;SDS011;3539;47.982;12.238;2023-07-08T01:57:31;6.27;;;5.00;;
6997;SDS011;3539;47.982;12.238;2023-07-08T01:59:58;5.90;;;4.70;;
6997;SDS011;3539;47.982;12.238;2023-07-08T02:02:25;6.47;;;5.10;;
6997;SDS011;3539;47.982;12.238;2023-07-08T02:04:52;6.30;;;4.70;;
6997;SDS011;3539;47.982;12.238;2023-07-08T02:07:19;7.87;;;4.77;;
6997;SDS011;3539;47.982;12.238;2023-07-08T02:09:45;7.17;;;5.37;;
6997;SDS011;3539;47.982;12.238;2023-07-08T02:12:14;7.47;;;5.40;;
6997;SDS011;3539;47.982;12.238;2023-07-08T02:14:43;6.83;;;4.83;;
6997;SDS011;3539;47.982;12.238;2023-07-08T02:17:10;7.10;;;5.00;;
6997;SDS011;3539;47.982;12.238;2023-07-08T02:19:39;6.87;;;4.83;;
6997;SDS011;3539;47.982;12.238;2023-07-08T02:22:06;7.43;;;4.90;;
6997;SDS011;3539;47.982;12.238;2023-07-08T02:24:33;6.77;;;4.40;;
6997;SDS011;3539;47.982;12.238;2023-07-08T02:27:00;6.90;;;4.70;;
6997;SDS011;3539;47.982;12.238;2023-07-08T02:29:26;6.60;;;5.03;;
6997;SDS011;3539;47.982;12.238;2023-07-08T02:31:55;8.93;;;4.70;;
6997;SDS011;3539;47.982;12.238;2023-07-08T02:34:22;6.50;;;4.60;;
6997;SDS011;3539;47.982;12.238;2023-07-08T02:36:49;6.13;;;4.33;;
6997;SDS011;3539;47.982;12.238;2023-07-08T02:39:15;6.00;;;4.67;;
6997;SDS011;3539;47.982;12.238;2023-07-08T02:41:44;8.90;;;5.00;;
6997;SDS011;3539;47.982;12.238;2023-07-08T02:44:11;5.37;;;4.40;;
6997;SDS011;3539;47.982;12.238;2023-07-08T02:46:38;4.97;;;4.13;;
6997;SDS011;3539;47.982;12.238;2023-07-08T02:49:06;5.77;;;4.60;;
6997;SDS011;3539;47.982;12.238;2023-07-08T02:51:33;7.83;;;5.47;;
6997;SDS011;3539;47.982;12.238;2023-07-08T02:54:00;7.00;;;4.97;;
6997;SDS011;3539;47.982;12.238;2023-07-08T02:56:27;6.00;;;5.23;;
6997;SDS011;3539;47.982;12.238;2023-07-08T02:58:53;6.13;;;4.63;;
6997;SDS011;3539;47.982;12.238;2023-07-08T03:01:20;6.77;;;5.10;;
6997;SDS011;3539;47.982;12.238;2023-07-08T03:03:48;8.30;;;4.77;;
6997;SDS011;3539;47.982;12.238;2023-07-08T03:06:16;6.60;;;4.70;;
6997;SDS011;3539;47.982;12.238;2023-07-08T03:08:43;6.20;;;4.67;;
6997;SDS011;3539;47.982;12.238;2023-07-08T03:11:10;6.63;;;4.47;;
6997;SDS011;3539;47.982;12.238;2023-07-08T03:13:38;5.87;;;4.83;;
6997;SDS011;3539;47.982;12.238;2023-07-08T03:16:05;7.87;;;4.73;;
6997;SDS011;3539;47.982;12.238;2023-07-08T03:18:37;5.37;;;4.67;;
6997;SDS011;3539;47.982;12.238;2023-07-08T03:21:11;7.10;;;4.90;;
6997;SDS011;3539;47.982;12.238;2023-07-08T03:23:40;5.43;;;4.73;;
6997;SDS011;3539;47.982;12.238;2023-07-08T03:26:07;5.50;;;4.70;;
6997;SDS011;3539;47.982;12.238;2023-07-08T03:28:34;6.47;;;4.70;;
6997;SDS011;3539;47.982;12.238;2023-07-08T03:31:02;7.07;;;4.70;;
6997;SDS011;3539;47.982;12.238;2023-07-08T03:33:28;7.70;;;5.33;;
6997;SDS011;3539;47.982;12.238;2023-07-08T03:35:55;8.30;;;4.80;;
6997;SDS011;3539;47.982;12.238;2023-07-08T03:38:22;7.67;;;5.20;;
6997;SDS011;3539;47.982;12.238;2023-07-08T03:40:50;7.37;;;5.10;;
6997;SDS011;3539;47.982;12.238;2023-07-08T03:43:17;7.80;;;4.37;;
6997;SDS011;3539;47.982;12.238;2023-07-08T03:45:43;6.43;;;4.50;;
6997;SDS011;3539;47.982;12.238;2023-07-08T03:48:10;5.83;;;4.97;;
6997;SDS011;3539;47.982;12.238;2023-07-08T03:50:38;6.60;;;4.70;;
6997;SDS011;3539;47.982;12.238;2023-07-08T03:53:05;5.70;;;4.47;;
6997;SDS011;3539;47.982;12.238;2023-07-08T03:55:32;7.50;;;4.70;;
6997;SDS011;3539;47.982;12.238;2023-07-08T03:58:00;6.07;;;4.60;;
6997;SDS011;3539;47.982;12.238;2023-07-08T04:00:29;5.87;;;4.73;;
6997;SDS011;3539;47.982;12.238;2023-07-08T04:02:56;6.10;;;4.90;;
6997;SDS011;3539;47.982;12.238;2023-07-08T04:05:23;7.13;;;5.03;;
6997;SDS011;3539;47.982;12.238;2023-07-08T04:07:50;5.53;;;4.47;;
6997;SDS011;3539;47.982;12.238;2023-07-08T04:10:17;8.50;;;5.43;;
6997;SDS011;3539;47.982;12.238;2023-07-08T04:12:44;6.07;;;4.83;;
6997;SDS011;3539;47.982;12.238;2023-07-08T04:15:12;6.83;;;4.80;;
6997;SDS011;3539;47.982;12.238;2023-07-08T04:17:41;6.37;;;5.30;;
6997;SDS011;3539;47.982;12.238;2023-07-08T04:20:10;6.60;;;5.23;;
6997;SDS011;3539;47.982;12.238;2023-07-08T04:22:37;7.97;;;5.40;;
6997;SDS011;3539;47.982;12.238;2023-07-08T04:25:04;6.63;;;5.40;;
6997;SDS011;3539;47.982;12.238;2023-07-08T04:27:31;8.50;;;5.93;;
6997;SDS011;3539;47.982;12.238;2023-07-08T04:29:58;7.10;;;6.03;;
6997;SDS011;3539;47.982;12.238;2023-07-08T04:32:26;7.23;;;6.13;;
6997;SDS011;3539;47.982;12.238;2023-07-08T04:34:53;8.23;;;6.37;;
6997;SDS011;3539;47.982;12.238;2023-07-08T04:37:24;7.10;;;5.77;;
6997;SDS011;3539;47.982;12.238;2023-07-08T04:39:51;9.27;;;6.50;;
6997;SDS011;3539;47.982;12.238;2023-07-08T04:42:18;7.70;;;6.03;;
6997;SDS011;3539;47.982;12.238;2023-07-08T04:44:44;7.63;;;6.40;;
6997;SDS011;3539;47.982;12.238;2023-07-08T04:47:14;7.47;;;6.20;;
6997;SDS011;3539;47.982;12.238;2023-07-08T04:49:42;7.20;;;5.57;;
6997;SDS011;3539;47.982;12.238;2023-07-08T04:52:11;6.00;;;5.33;;
6997;SDS011;3539;47.982;12.238;2023-07-08T04:54:38;7.20;;;5.53;;
6997;SDS011;3539;47.982;12.238;2023-07-08T04:57:04;8.60;;;5.83;;
6997;SDS011;3539;47.982;12.238;2023-07-08T04:59:31;8.07;;;6.27;;
6997;SDS011;3539;47.982;12.238;2023-07-08T05:01:59;7.07;;;5.40;;
6997;SDS011;3539;47.982;12.238;2023-07-08T05:04:26;9.70;;;6.57;;
6997;SDS011;3539;47.982;12.238;2023-07-08T05:06:54;6.10;;;5.37;;
6997;SDS011;3539;47.982;12.238;2023-07-08T05:09:21;9.17;;;5.50;;
6997;SDS011;3539;47.982;12.238;2023-07-08T05:11:50;8.27;;;6.07;;
6997;SDS011;3539;47.982;12.238;2023-07-08T05:14:17;7.23;;;5.57;;
6997;SDS011;3539;47.982;12.238;2023-07-08T05:16:44;9.27;;;5.93;;
6997;SDS011;3539;47.982;12.238;2023-07-08T05:19:11;7.43;;;5.77;;
6997;SDS011;3539;47.982;12.238;2023-07-08T05:21:38;7.83;;;6.23;;
6997;SDS011;3539;47.982;12.238;2023-07-08T05:24:06;6.90;;;5.43;;
6997;SDS011;3539;47.982;12.238;2023-07-08T05:26:33;7.80;;;5.90;;
6997;SDS011;3539;47.982;12.238;2023-07-08T05:29:00;7.40;;;5.80;;
6997;SDS011;3539;47.982;12.238;2023-07-08T05:31:27;7.73;;;6.23;;
6997;SDS011;3539;47.982;12.238;2023-07-08T05:33:54;8.07;;;5.57;;
6997;SDS011;3539;47.982;12.238;2023-07-08T05:36:23;7.07;;;5.30;;
6997;SDS011;3539;47.982;12.238;2023-07-08T05:38:50;7.50;;;5.63;;
6997;SDS011;3539;47.982;12.238;2023-07-08T05:41:18;7.27;;;5.57;;
6997;SDS011;3539;47.982;12.238;2023-07-08T05:43:45;6.40;;;5.47;;
6997;SDS011;3539;47.982;12.238;2023-07-08T05:46:11;8.23;;;5.53;;
6997;SDS011;3539;47.982;12.238;2023-07-08T05:48:38;6.20;;;5.43;;
6997;SDS011;3539;47.982;12.238;2023-07-08T05:51:05;6.87;;;5.53;;
6997;SDS011;3539;47.982;12.238;2023-07-08T05:53:32;6.27;;;5.13;;
6997;SDS011;3539;47.982;12.238;2023-07-08T05:55:58;5.20;;;4.67;;
6997;SDS011;3539;47.982;12.238;2023-07-08T05:58:26;7.37;;;5.13;;
6997;SDS011;3539;47.982;12.238;2023-07-08T06:00:57;6.77;;;5.37;;
6997;SDS011;3539;47.982;12.238;2023-07-08T06:03:29;7.20;;;5.70;;
6997;SDS011;3539;47.982;12.238;2023-07-08T06:05:55;5.50;;;4.90;;
6997;SDS011;3539;47.982;12.238;2023-07-08T06:08:22;6.93;;;5.40;;
6997;SDS011;3539;47.982;12.238;2023-07-08T06:14:12;6.50;;;5.50;;
6997;SDS011;3539;47.982;12.238;2023-07-08T06:16:38;7.20;;;5.50;;
6997;SDS011;3539;47.982;12.238;2023-07-08T06:19:05;6.57;;;5.33;;
6997;SDS011;3539;47.982;12.238;2023-07-08T06:21:32;5.73;;;5.10;;
6997;SDS011;3539;47.982;12.238;2023-07-08T06:23:58;7.10;;;5.20;;
6997;SDS011;3539;47.982;12.238;2023-07-08T06:26:25;7.97;;;5.70;;
6997;SDS011;3539;47.982;12.238;2023-07-08T06:28:52;7.63;;;5.67;;
6997;SDS011;3539;47.982;12.238;2023-07-08T06:31:20;8.00;;;5.63;;
6997;SDS011;3539;47.982;12.238;2023-07-08T06:33:47;7.80;;;5.30;;
6997;SDS011;3539;47.982;12.238;2023-07-08T06:36:13;8.80;;;5.70;;
6997;SDS011;3539;47.982;12.238;2023-07-08T06:38:40;7.93;;;5.77;;
6997;SDS011;3539;47.982;12.238;2023-07-08T06:41:07;8.20;;;6.20;;
6997;SDS011;3539;47.982;12.238;2023-07-08T06:43:33;7.37;;;5.60;;
6997;SDS011;3539;47.982;12.238;2023-07-08T06:46:00;7.17;;;5.90;;
6997;SDS011;3539;47.982;12.238;2023-07-08T06:48:28;8.83;;;5.83;;
6997;SDS011;3539;47.982;12.238;2023-07-08T06:50:56;8.23;;;5.70;;
6997;SDS011;3539;47.982;12.238;2023-07-08T06:53:25;8.67;;;5.67;;
6997;SDS011;3539;47.982;12.238;2023-07-08T06:55:51;6.97;;;5.33;;
6997;SDS011;3539;47.982;12.238;2023-07-08T06:58:18;6.93;;;5.40;;
6997;SDS011;3539;47.982;12.238;2023-07-08T07:00:48;7.10;;;5.63;;
6997;SDS011;3539;47.982;12.238;2023-07-08T07:03:14;7.97;;;5.90;;
6997;SDS011;3539;47.982;12.238;2023-07-08T07:05:43;6.63;;;5.50;;
6997;SDS011;3539;47.982;12.238;2023-07-08T07:08:10;7.53;;;5.53;;
6997;SDS011;3539;47.982;12.238;2023-07-08T07:10:36;8.50;;;6.20;;
6997;SDS011;3539;47.982;12.238;2023-07-08T07:13:03;6.70;;;5.40;;
6997;SDS011;3539;47.982;12.238;2023-07-08T07:15:30;6.43;;;5.20;;
6997;SDS011;3539;47.982;12.238;2023-07-08T07:17:57;7.83;;;5.47;;
6997;SDS011;3539;47.982;12.238;2023-07-08T07:20:24;6.87;;;5.07;;
6997;SDS011;3539;47.982;12.238;2023-07-08T07:22:52;6.77;;;4.93;;
6997;SDS011;3539;47.982;12.238;2023-07-08T07:25:19;7.10;;;5.43;;
6997;SDS011;3539;47.982;12.238;2023-07-08T07:27:46;7.03;;;5.57;;
6997;SDS011;3539;47.982;12.238;2023-07-08T07:30:13;7.53;;;5.30;;
6997;SDS011;3539;47.982;12.238;2023-07-08T07:32:42;8.63;;;6.00;;
6997;SDS011;3539;47.982;12.238;2023-07-08T07:35:09;8.80;;;5.33;;
6997;SDS011;3539;47.982;12.238;2023-07-08T07:37:38;8.80;;;5.63;;
6997;SDS011;3539;47.982;12.238;2023-07-08T07:40:07;7.60;;;5.50;;
6997;SDS011;3539;47.982;12.238;2023-07-08T07:42:37;7.70;;;5.10;;
6997;SDS011;3539;47.982;12.238;2023-07-08T07:45:04;8.33;;;5.00;;
6997;SDS011;3539;47.982;12.238;2023-07-08T07:47:32;7.93;;;5.77;;
6997;SDS011;3539;47.982;12.238;2023-07-08T07:49:58;7.77;;;5.70;;
6997;SDS011;3539;47.982;12.238;2023-07-08T07:52:25;8.60;;;5.70;;
6997;SDS011;3539;47.982;12.238;2023-07-08T07:54:52;6.80;;;5.43;;
6997;SDS011;3539;47.982;12.238;2023-07-08T07:57:21;7.23;;;5.57;;
6997;SDS011;3539;47.982;12.238;2023-07-08T07:59:48;7.80;;;5.37;;
6997;SDS011;3539;47.982;12.238;2023-07-08T08:02:15;8.00;;;5.43;;
6997;SDS011;3539;47.982;12.238;2023-07-08T08:04:42;11.37;;;6.03;;
6997;SDS011;3539;47.982;12.238;2023-07-08T08:07:09;6.70;;;5.63;;
6997;SDS011;3539;47.982;12.238;2023-07-08T08:09:36;8.47;;;5.13;;
6997;SDS011;3539;47.982;12.238;2023-07-08T08:12:03;7.67;;;6.20;;
6997;SDS011;3539;47.982;12.238;2023-07-08T08:14:32;7.87;;;5.93;;
6997;SDS011;3539;47.982;12.238;2023-07-08T08:17:02;6.50;;;5.23;;
6997;SDS011;3539;47.982;12.238;2023-07-08T08:19:29;8.53;;;5.30;;
6997;SDS011;3539;47.982;12.238;2023-07-08T08:21:56;8.60;;;5.30;;
6997;SDS011;3539;47.982;12.238;2023-07-08T08:24:23;8.93;;;5.20;;
6997;SDS011;3539;47.982;12.238;2023-07-08T08:26:49;7.63;;;5.37;;
6997;SDS011;3539;47.982;12.238;2023-07-08T08:29:16;6.70;;;5.20;;
6997;SDS011;3539;47.982;12.238;2023-07-08T08:31:44;8.13;;;5.27;;
6997;SDS011;3539;47.982;12.238;2023-07-08T08:34:11;8.43;;;5.20;;
6997;SDS011;3539;47.982;12.238;2023-07-08T08:36:38;10.33;;;6.13;;
6997;SDS011;3539;47.982;12.238;2023-07-08T08:39:07;7.40;;;5.40;;
6997;SDS011;3539;47.982;12.238;2023-07-08T08:41:37;6.57;;;5.00;;
6997;SDS011;3539;47.982;12.238;2023-07-08T08:44:05;7.83;;;5.23;;
6997;SDS011;3539;47.982;12.238;2023-07-08T08:46:34;10.10;;;5.13;;
6997;SDS011;3539;47.982;12.238;2023-07-08T08:49:10;8.00;;;5.30;;
6997;SDS011;3539;47.982;12.238;2023-07-08T08:51:40;8.20;;;5.20;;
6997;SDS011;3539;47.982;12.238;2023-07-08T08:54:07;6.40;;;5.10;;
6997;SDS011;3539;47.982;12.238;2023-07-08T08:56:36;7.23;;;5.33;;
6997;SDS011;3539;47.982;12.238;2023-07-08T08:59:11;7.60;;;5.10;;
6997;SDS011;3539;47.982;12.238;2023-07-08T09:01:43;6.43;;;4.83;;
6997;SDS011;3539;47.982;12.238;2023-07-08T09:04:12;6.43;;;5.30;;
6997;SDS011;3539;47.982;12.238;2023-07-08T09:06:42;7.93;;;5.80;;
6997;SDS011;3539;47.982;12.238;2023-07-08T09:09:15;8.60;;;5.73;;
6997;SDS011;3539;47.982;12.238;2023-07-08T09:11:50;6.57;;;4.97;;
6997;SDS011;3539;47.982;12.238;2023-07-08T09:14:25;6.80;;;5.20;;
6997;SDS011;3539;47.982;12.238;2023-07-08T09:17:19;7.43;;;4.97;;
6997;SDS011;3539;47.982;12.238;2023-07-08T09:19:56;8.57;;;5.00;;
6997;SDS011;3539;47.982;12.238;2023-07-08T09:22:32;9.50;;;5.20;;
6997;SDS011;3539;47.982;12.238;2023-07-08T09:25:20;10.00;;;5.70;;
6997;SDS011;3539;47.982;12.238;2023-07-08T09:27:54;7.87;;;5.73;;
6997;SDS011;3539;47.982;12.238;2023-07-08T09:30:30;7.80;;;5.90;;
6997;SDS011;3539;47.982;12.238;2023-07-08T09:33:14;7.57;;;5.88;;
6997;SDS011;3539;47.982;12.238;2023-07-08T09:35:49;8.38;;;5.80;;
6997;SDS011;3539;47.982;12.238;2023-07-08T09:38:24;10.30;;;4.90;;
6997;SDS011;3539;47.982;12.238;2023-07-08T09:54:21;21.23;;;6.60;;
6997;SDS011;3539;47.982;12.238;2023-07-08T09:56:52;10.68;;;6.32;;
6997;SDS011;3539;47.982;12.238;2023-07-08T09:59:26;7.65;;;5.50;;
6997;SDS011;3539;47.982;12.238;2023-07-08T10:01:58;9.15;;;5.88;;
6997;SDS011;3539;47.982;12.238;2023-07-08T10:04:26;7.47;;;5.70;;
6997;SDS011;3539;47.982;12.238;2023-07-08T10:06:54;7.15;;;5.65;;
6997;SDS011;3539;47.982;12.238;2023-07-08T10:09:23;10.57;;;5.53;;
6997;SDS011;3539;47.982;12.238;2023-07-08T10:11:52;7.88;;;5.60;;
6997;SDS011;3539;47.982;12.238;2023-07-08T10:14:24;8.05;;;6.15;;
6997;SDS011;3539;47.982;12.238;2023-07-08T10:16:56;8.25;;;5.60;;
6997;SDS011;3539;47.982;12.238;2023-07-08T10:19:40;7.40;;;5.38;;
6997;SDS011;3539;47.982;12.238;2023-07-08T10:22:17;9.27;;;5.88;;
6997;SDS011;3539;47.982;12.238;2023-07-08T10:24:55;7.90;;;5.80;;
6997;SDS011;3539;47.982;12.238;2023-07-08T10:27:33;6.70;;;5.80;;
6997;SDS011;3539;47.982;12.238;2023-07-08T10:30:11;7.57;;;5.75;;
6997;SDS011;3539;47.982;12.238;2023-07-08T10:33:01;9.75;;;5.97;;
6997;SDS011;3539;47.982;12.238;2023-07-08T10:36:07;8.95;;;6.10;;
6997;SDS011;3539;47.982;12.238;2023-07-08T10:42:09;7.13;;;5.70;;
6997;SDS011;3539;47.982;12.238;2023-07-08T10:44:57;7.13;;;5.80;;
6997;SDS011;3539;47.982;12.238;2023-07-08T10:47:33;7.95;;;5.90;;
6997;SDS011;3539;47.982;12.238;2023-07-08T10:50:21;6.43;;;5.68;;
6997;SDS011;3539;47.982;12.238;2023-07-08T10:52:55;8.60;;;6.05;;
6997;SDS011;3539;47.982;12.238;2023-07-08T10:55:34;7.82;;;5.32;;
6997;SDS011;3539;47.982;12.238;2023-07-08T10:58:18;6.80;;;5.68;;
6997;SDS011;3539;47.982;12.238;2023-07-08T11:00:57;8.88;;;5.63;;
6997;SDS011;3539;47.982;12.238;2023-07-08T11:03:46;10.95;;;5.70;;
6997;SDS011;3539;47.982;12.238;2023-07-08T11:06:37;7.47;;;5.95;;
6997;SDS011;3539;47.982;12.238;2023-07-08T11:09:17;6.35;;;5.10;;
6997;SDS011;3539;47.982;12.238;2023-07-08T11:12:04;9.13;;;5.75;;
6997;SDS011;3539;47.982;12.238;2023-07-08T11:14:45;6.63;;;5.70;;
6997;SDS011;3539;47.982;12.238;2023-07-08T11:17:18;6.70;;;5.32;;
6997;SDS011;3539;47.982;12.238;2023-07-08T11:19:59;6.18;;;5.05;;
6997;SDS011;3539;47.982;12.238;2023-07-08T11:22:37;7.22;;;5.28;;
6997;SDS011;3539;47.982;12.238;2023-07-08T11:25:16;6.43;;;5.22;;
6997;SDS011;3539;47.982;12.238;2023-07-08T11:27:54;8.15;;;5.35;;
6997;SDS011;3539;47.982;12.238;2023-07-08T11:30:28;8.88;;;5.70;;
6997;SDS011;3539;47.982;12.238;2023-07-08T11:33:11;6.72;;;5.40;;
6997;SDS011;3539;47.982;12.238;2023-07-08T11:36:03;6.75;;;5.30;;
6997;SDS011;3539;47.982;12.238;2023-07-08T11:38:44;6.05;;;5.47;;
6997;SDS011;3539;47.982;12.238;2023-07-08T11:44:15;5.78;;;5.20;;
6997;SDS011;3539;47.982;12.238;2023-07-08T11:46:54;7.80;;;5.53;;
6997;SDS011;3539;47.982;12.238;2023-07-08T11:49:29;7.60;;;5.80;;
6997;SDS011;3539;47.982;12.238;2023-07-08T11:51:58;7.30;;;5.30;;
6997;SDS011;3539;47.982;12.238;2023-07-08T11:54:44;6.18;;;4.82;;
6997;SDS011;3539;47.982;12.238;2023-07-08T11:57:24;7.22;;;5.50;;
6997;SDS011;3539;47.982;12.238;2023-07-08T12:00:06;6.50;;;5.32;;
6997;SDS011;3539;47.982;12.238;2023-07-08T12:02:52;6.65;;;5.40;;
6997;SDS011;3539;47.982;12.238;2023-07-08T12:05:44;7.53;;;5.75;;
6997;SDS011;3539;47.982;12.238;2023-07-08T12:08:18;6.43;;;5.45;;
6997;SDS011;3539;47.982;12.238;2023-07-08T12:10:55;8.77;;;5.35;;
6997;SDS011;3539;47.982;12.238;2023-07-08T12:13:26;6.75;;;5.97;;
6997;SDS011;3539;47.982;12.238;2023-07-08T12:15:53;7.32;;;5.40;;
6997;SDS011;3539;47.982;12.238;2023-07-08T12:18:23;6.63;;;5.55;;
6997;SDS011;3539;47.982;12.238;2023-07-08T12:21:11;6.07;;;5.47;;
6997;SDS011;3539;47.982;12.238;2023-07-08T12:23:43;6.90;;;5.78;;
6997;SDS011;3539;47.982;12.238;2023-07-08T12:26:10;7.40;;;5.50;;
6997;SDS011;3539;47.982;12.238;2023-07-08T12:28:42;8.10;;;5.72;;
6997;SDS011;3539;47.982;12.238;2023-07-08T12:31:15;8.98;;;5.55;;
6997;SDS011;3539;47.982;12.238;2023-07-08T12:34:04;7.38;;;6.05;;
6997;SDS011;3539;47.982;12.238;2023-07-08T12:36:43;9.95;;;6.07;;
6997;SDS011;3539;47.982;12.238;2023-07-08T12:39:11;7.70;;;5.78;;
6997;SDS011;3539;47.982;12.238;2023-07-08T12:41:44;6.40;;;5.47;;
6997;SDS011;3539;47.982;12.238;2023-07-08T12:44:17;8.20;;;5.80;;
6997;SDS011;3539;47.982;12.238;2023-07-08T12:46:56;6.35;;;5.45;;
6997;SDS011;3539;47.982;12.238;2023-07-08T12:52:44;10.05;;;5.78;;
6997;SDS011;3539;47.982;12.238;2023-07-08T12:55:12;6.85;;;5.20;;
6997;SDS011;3539;47.982;12.238;2023-07-08T12:57:43;7.65;;;5.65;;
6997;SDS011;3539;47.982;12.238;2023-07-08T13:00:18;8.40;;;5.40;;
6997;SDS011;3539;47.982;12.238;2023-07-08T13:03:04;5.95;;;5.35;;
6997;SDS011;3539;47.982;12.238;2023-07-08T13:05:33;6.15;;;5.20;;
6997;SDS011;3539;47.982;12.238;2023-07-08T13:08:01;6.05;;;5.40;;
6997;SDS011;3539;47.982;12.238;2023-07-08T13:10:31;5.97;;;5.32;;
6997;SDS011;3539;47.982;12.238;2023-07-08T13:13:00;5.78;;;5.18;;
6997;SDS011;3539;47.982;12.238;2023-07-08T13:15:30;6.28;;;5.05;;
6997;SDS011;3539;47.982;12.238;2023-07-08T13:17:58;5.80;;;5.30;;
6997;SDS011;3539;47.982;12.238;2023-07-08T13:20:25;8.82;;;5.55;;
6997;SDS011;3539;47.982;12.238;2023-07-08T13:22:53;7.90;;;5.90;;
6997;SDS011;3539;47.982;12.238;2023-07-08T13:25:28;6.00;;;4.93;;
6997;SDS011;3539;47.982;12.238;2023-07-08T13:27:57;6.30;;;5.35;;
6997;SDS011;3539;47.982;12.238;2023-07-08T13:30:26;8.05;;;5.15;;
6997;SDS011;3539;47.982;12.238;2023-07-08T13:32:54;5.50;;;5.00;;
6997;SDS011;3539;47.982;12.238;2023-07-08T13:35:25;8.93;;;4.57;;
6997;SDS011;3539;47.982;12.238;2023-07-08T13:37:53;7.30;;;4.88;;
6997;SDS011;3539;47.982;12.238;2023-07-08T13:40:25;8.02;;;5.18;;
6997;SDS011;3539;47.982;12.238;2023-07-08T13:42:53;6.55;;;4.57;;
6997;SDS011;3539;47.982;12.238;2023-07-08T13:45:23;4.93;;;4.22;;
6997;SDS011;3539;47.982;12.238;2023-07-08T13:48:03;5.97;;;5.00;;
6997;SDS011;3539;47.982;12.238;2023-07-08T13:50:41;6.82;;;4.40;;
6997;SDS011;3539;47.982;12.238;2023-07-08T13:53:16;7.50;;;4.63;;
6997;SDS011;3539;47.982;12.238;2023-07-08T13:55:45;5.82;;;4.35;;
6997;SDS011;3539;47.982;12.238;2023-07-08T13:58:14;8.48;;;4.95;;
6997;SDS011;3539;47.982;12.238;2023-07-08T14:00:42;5.35;;;4.38;;
6997;SDS011;3539;47.982;12.238;2023-07-08T14:03:12;7.05;;;4.55;;
6997;SDS011;3539;47.982;12.238;2023-07-08T14:05:40;5.20;;;4.70;;
6997;SDS011;3539;47.982;12.238;2023-07-08T14:10:57;5.10;;;4.13;;
6997;SDS011;3539;47.982;12.238;2023-07-08T14:13:38;5.75;;;4.30;;
6997;SDS011;3539;47.982;12.238;2023-07-08T14:16:15;5.82;;;4.85;;
6997;SDS011;3539;47.982;12.238;2023-07-08T14:18:50;5.80;;;4.20;;
6997;SDS011;3539;47.982;12.238;2023-07-08T14:21:25;4.80;;;4.30;;
6997;SDS011;3539;47.982;12.238;2023-07-08T14:23:52;5.47;;;4.30;;
6997;SDS011;3539;47.982;12.238;2023-07-08T14:26:29;7.60;;;4.72;;
6997;SDS011;3539;47.982;12.238;2023-07-08T14:28:56;8.50;;;5.25;;
6997;SDS011;3539;47.982;12.238;2023-07-08T14:31:26;5.97;;;4.53;;
6997;SDS011;3539;47.982;12.238;2023-07-08T14:34:02;7.22;;;4.55;;
6997;SDS011;3539;47.982;12.238;2023-07-08T14:36:31;5.80;;;4.32;;
6997;SDS011;3539;47.982;12.238;2023-07-08T14:38:57;6.95;;;4.28;;
6997;SDS011;3539;47.982;12.238;2023-07-08T14:41:32;5.20;;;4.20;;
6997;SDS011;3539;47.982;12.238;2023-07-08T14:44:07;5.93;;;4.82;;
6997;SDS011;3539;47.982;12.238;2023-07-08T14:46:37;6.72;;;4.30;;
6997;SDS011;3539;47.982;12.238;2023-07-08T14:52:30;7.22;;;4.88;;
6997;SDS011;3539;47.982;12.238;2023-07-08T14:54:57;6.88;;;4.90;;
6997;SDS011;3539;47.982;12.238;2023-07-08T14:57:26;8.20;;;5.15;;
6997;SDS011;3539;47.982;12.238;2023-07-08T15:00:02;7.40;;;4.40;;
6997;SDS011;3539;47.982;12.238;2023-07-08T15:02:35;6.45;;;4.40;;
6997;SDS011;3539;47.982;12.238;2023-07-08T15:05:17;6.65;;;4.88;;
6997;SDS011;3539;47.982;12.238;2023-07-08T15:07:49;5.40;;;4.00;;
6997;SDS011;3539;47.982;12.238;2023-07-08T15:10:35;5.07;;;4.45;;
6997;SDS011;3539;47.982;12.238;2023-07-08T15:13:08;6.13;;;4.70;;
6997;SDS011;3539;47.982;12.238;2023-07-08T15:15:44;5.53;;;4.72;;
6997;SDS011;3539;47.982;12.238;2023-07-08T15:18:25;7.03;;;4.13;;
6997;SDS011;3539;47.982;12.238;2023-07-08T15:21:03;7.78;;;5.07;;
6997;SDS011;3539;47.982;12.238;2023-07-08T15:23:42;6.15;;;4.28;;
6997;SDS011;3539;47.982;12.238;2023-07-08T15:26:18;6.03;;;4.50;;
6997;SDS011;3539;47.982;12.238;2023-07-08T15:29:04;6.93;;;4.90;;
6997;SDS011;3539;47.982;12.238;2023-07-08T15:31:32;7.53;;;4.97;;
6997;SDS011;3539;47.982;12.238;2023-07-08T15:34:04;7.28;;;4.75;;
6997;SDS011;3539;47.982;12.238;2023-07-08T15:36:38;12.00;;;4.55;;
6997;SDS011;3539;47.982;12.238;2023-07-08T15:39:04;6.95;;;4.63;;
6997;SDS011;3539;47.982;12.238;2023-07-08T15:41:31;8.57;;;4.68;;
6997;SDS011;3539;47.982;12.238;2023-07-08T15:43:59;6.93;;;4.45;;
6997;SDS011;3539;47.982;12.238;2023-07-08T15:46:30;5.68;;;4.80;;
6997;SDS011;3539;47.982;12.238;2023-07-08T15:48:58;5.63;;;4.28;;
6997;SDS011;3539;47.982;12.238;2023-07-08T15:54:39;5.35;;;4.10;;
6997;SDS011;3539;47.982;12.238;2023-07-08T15:57:08;6.25;;;4.70;;
6997;SDS011;3539;47.982;12.238;2023-07-08T15:59:38;7.65;;;4.75;;
6997;SDS011;3539;47.982;12.238;2023-07-08T16:02:19;6.13;;;4.65;;